KDEQ

J Lynn Helms Sevier County Airport

De Queen, Arkansas, USA
METAR KDEQ 242353Z AUTO 13003KT 10SM CLR 31/21 A2998 RMK AO2 LTG DSNT NE AND E SLP145 T03110206 10322 20289 55007
Observed Flight Rules
May-24 @ 23:53 UTC (an hour ago) Visual Flight Rules
Wind Visibility Clouds
130° at 3 knots 10 miles
  • Clear skies
Temperatures Readings
Current 31°C / 88°F
Dewpoint 21°C / 70°F
Humidity 55%
Altimeter 29.98" Hg
Pressure 1014.5 hPa
Elevation 106
METAR KDEQ 242353Z AUTO 13003KT 10SM CLR 31/21 A2998 RMK AO2 LTG DSNT NE AND E SLP145 T03110206 10322 20289 55007
Observed Flight Rules
May-24 @ 23:53 UTC
(an hour ago)
VFR
Wind Visibility
130° at 3 knots 10 miles
Clouds
  • Clear skies
Temperature Dewpoint
31°C / 88°F 21°C / 70°F
Humidity Altimeter Pressure
55% 29.98" Hg 1014.5 hPa